Time;durP1;ratioP1;P1;durP2;ratioP2;P2;SDS_P1;SDS_P2;PMS_P1;PMS_P2;Temp;Humidity;BMP_temperature;BMP_pressure;BME280_temperature;BME280_humidity;BME280_pressure;Samples;Min_cycle;Max_cycle;Signal;HPM_P1;HPM_P2
2021/10/16 00:01:24;;;;;;;10.93;7.87;;;9.80;91.90;;;;;;5031992;28;20808;-77
2021/10/16 00:03:49;;;;;;;12.10;7.50;;;9.80;92.20;;;;;;5032139;28;20276;-77
2021/10/16 00:06:16;;;;;;;15.10;7.90;;;9.70;92.20;;;;;;5031272;28;20181;-77
2021/10/16 00:08:42;;;;;;;13.80;7.90;;;9.80;92.20;;;;;;5035258;28;20223;-77
2021/10/16 00:11:08;;;;;;;13.90;7.97;;;9.80;92.20;;;;;;5034215;28;20467;-78
2021/10/16 00:13:34;;;;;;;12.03;7.37;;;9.80;92.10;;;;;;5037478;28;20423;-78
2021/10/16 00:16:00;;;;;;;13.50;7.80;;;9.70;92.30;;;;;;5042021;28;20478;-76
2021/10/16 00:18:26;;;;;;;10.47;7.07;;;9.60;92.50;;;;;;5043861;28;20195;-77
2021/10/16 00:20:54;;;;;;;11.87;7.63;;;9.60;92.70;;;;;;5041184;28;20467;-76
2021/10/16 00:23:20;;;;;;;9.70;7.40;;;9.50;92.80;;;;;;5037808;28;20213;-77
2021/10/16 00:25:46;;;;;;;13.03;8.00;;;9.50;92.90;;;;;;5042934;28;20953;-77
2021/10/16 00:28:12;;;;;;;15.23;8.20;;;9.40;93.00;;;;;;5043133;28;20256;-77
2021/10/16 00:30:37;;;;;;;13.73;7.57;;;9.30;93.20;;;;;;5040178;28;20221;-77
2021/10/16 00:33:04;;;;;;;14.83;7.80;;;9.30;93.60;;;;;;5034882;28;20181;-78
2021/10/16 00:35:29;;;;;;;14.03;7.33;;;9.30;93.40;;;;;;5033415;28;20177;-77
2021/10/16 00:37:55;;;;;;;10.60;6.83;;;9.30;93.10;;;;;;5034239;28;20435;-78
2021/10/16 00:40:21;;;;;;;13.63;7.37;;;9.20;93.20;;;;;;5033348;28;20178;-77
2021/10/16 00:42:52;;;;;;;14.77;7.63;;;9.10;93.50;;;;;;5035795;28;20652;-77
2021/10/16 00:45:19;;;;;;;13.27;7.60;;;9.00;93.80;;;;;;5034869;28;20408;-76
2021/10/16 00:47:46;;;;;;;13.40;7.87;;;9.00;94.10;;;;;;5034070;28;20412;-76
2021/10/16 00:50:13;;;;;;;13.00;7.70;;;8.90;94.20;;;;;;5032508;28;20514;-77
2021/10/16 00:52:40;;;;;;;13.23;8.27;;;8.90;94.50;;;;;;5034143;28;20435;-76
2021/10/16 00:55:08;;;;;;;14.50;7.93;;;9.00;94.90;;;;;;5033877;28;20434;-75
2021/10/16 00:57:34;;;;;;;15.40;7.93;;;9.00;95.20;;;;;;5034599;28;20435;-76
2021/10/16 01:00:00;;;;;;;13.20;7.70;;;9.00;95.10;;;;;;5033425;28;20439;-76
2021/10/16 01:02:26;;;;;;;11.17;6.90;;;9.20;95.00;;;;;;5033535;28;20998;-76
2021/10/16 01:04:52;;;;;;;13.80;8.40;;;9.20;94.70;;;;;;5034059;28;20427;-77
2021/10/16 01:07:18;;;;;;;15.70;8.10;;;9.20;94.70;;;;;;5032433;28;20193;-76
2021/10/16 01:09:45;;;;;;;13.07;7.07;;;9.20;94.70;;;;;;5033257;28;20185;-77
2021/10/16 01:12:11;;;;;;;17.57;9.50;;;9.30;94.90;;;;;;5034255;28;20212;-76
2021/10/16 01:14:53;;;;;;;23.30;10.00;;;9.30;94.80;;;;;;5035124;28;20431;-77
2021/10/16 01:17:19;;;;;;;17.50;9.20;;;9.40;95.00;;;;;;5039791;28;20447;-77
2021/10/16 01:19:46;;;;;;;16.80;8.53;;;9.50;95.20;;;;;;5041519;28;20423;-76
2021/10/16 01:22:12;;;;;;;17.87;9.33;;;9.50;95.10;;;;;;5039584;28;20467;-77
2021/10/16 01:24:39;;;;;;;16.73;9.57;;;9.60;95.10;;;;;;5040649;28;20450;-77
2021/10/16 01:27:06;;;;;;;14.90;9.37;;;9.70;94.70;;;;;;5032992;28;20424;-76
2021/10/16 01:29:34;;;;;;;19.20;8.93;;;9.80;94.40;;;;;;5034289;28;20503;-75
2021/10/16 01:32:02;;;;;;;17.23;8.77;;;9.80;94.10;;;;;;5033722;28;20455;-76
2021/10/16 01:34:28;;;;;;;16.27;9.27;;;9.90;93.90;;;;;;5035026;28;20432;-75
2021/10/16 01:36:54;;;;;;;18.67;10.33;;;9.90;93.80;;;;;;5033775;28;20428;-75
2021/10/16 01:39:21;;;;;;;18.90;9.80;;;10.00;93.40;;;;;;5033368;28;20454;-76
2021/10/16 01:41:47;;;;;;;18.10;9.07;;;9.90;93.30;;;;;;5031550;28;20546;-77
2021/10/16 01:44:14;;;;;;;22.80;10.67;;;9.80;93.60;;;;;;5031918;28;20438;-76
2021/10/16 01:46:40;;;;;;;17.50;8.77;;;9.70;93.70;;;;;;5033454;28;20419;-76
2021/10/16 01:49:11;;;;;;;15.80;9.97;;;9.70;93.90;;;;;;5031725;28;20478;-77
2021/10/16 01:51:38;;;;;;;22.03;9.27;;;9.70;93.80;;;;;;5032630;28;20930;-76
2021/10/16 01:54:04;;;;;;;17.50;9.57;;;9.70;93.90;;;;;;5032533;28;20468;-76
2021/10/16 01:56:30;;;;;;;16.93;7.87;;;9.70;93.80;;;;;;5032734;28;20439;-76
2021/10/16 01:58:56;;;;;;;17.40;10.07;;;9.60;93.90;;;;;;5031329;28;20432;-76
2021/10/16 02:01:22;;;;;;;21.70;10.40;;;9.60;94.00;;;;;;5037936;28;20863;-75
2021/10/16 02:03:48;;;;;;;20.70;10.70;;;9.50;94.30;;;;;;5031975;28;20189;-76
2021/10/16 02:06:13;;;;;;;18.10;10.70;;;9.50;94.40;;;;;;5032152;28;20761;-77
2021/10/16 02:08:39;;;;;;;20.07;10.00;;;9.50;94.40;;;;;;5030945;28;20810;-76
2021/10/16 02:11:05;;;;;;;18.63;10.80;;;9.60;94.40;;;;;;5032220;28;20201;-76
2021/10/16 02:13:31;;;;;;;18.97;10.33;;;9.60;94.30;;;;;;5028818;28;20225;-75
2021/10/16 02:15:57;;;;;;;16.50;9.80;;;9.70;94.30;;;;;;5030006;28;20459;-76
2021/10/16 02:18:22;;;;;;;19.90;10.60;;;9.60;94.10;;;;;;5030775;28;20196;-77
2021/10/16 02:20:48;;;;;;;19.50;10.87;;;9.60;94.30;;;;;;5038870;28;20216;-76
2021/10/16 02:23:14;;;;;;;19.93;10.73;;;9.70;94.30;;;;;;5036909;28;20824;-76
2021/10/16 02:25:40;;;;;;;18.03;11.10;;;9.70;94.10;;;;;;5036918;28;20524;-77
2021/10/16 02:28:05;;;;;;;17.00;9.90;;;9.70;94.20;;;;;;5047165;28;20203;-76
2021/10/16 02:30:31;;;;;;;16.83;9.70;;;9.70;94.50;;;;;;5048666;28;20648;-75
2021/10/16 02:32:57;;;;;;;16.20;10.10;;;9.70;94.60;;;;;;5045584;28;20209;-76
2021/10/16 02:35:23;;;;;;;17.30;9.47;;;9.80;94.60;;;;;;5025617;28;20220;-76
2021/10/16 02:37:48;;;;;;;17.83;9.43;;;9.90;94.50;;;;;;5032250;28;20185;-76
2021/10/16 02:40:14;;;;;;;18.33;9.13;;;9.90;94.40;;;;;;5031618;28;20600;-76
2021/10/16 02:42:41;;;;;;;16.23;9.03;;;9.90;94.50;;;;;;5026102;28;20207;-76
2021/10/16 02:45:08;;;;;;;13.63;9.50;;;10.00;94.60;;;;;;5033544;28;20197;-76
2021/10/16 02:47:34;;;;;;;15.00;9.43;;;10.00;94.40;;;;;;5035613;28;20453;-76
2021/10/16 02:49:59;;;;;;;19.13;8.83;;;10.10;94.20;;;;;;5034950;28;20531;-76
2021/10/16 02:52:26;;;;;;;17.63;9.97;;;10.10;94.00;;;;;;5034222;28;20451;-75
2021/10/16 02:54:52;;;;;;;20.27;10.07;;;10.20;93.80;;;;;;5033036;28;20651;-75
2021/10/16 02:57:18;;;;;;;14.87;8.97;;;10.20;93.40;;;;;;5030825;28;20435;-77
2021/10/16 02:59:44;;;;;;;16.27;9.40;;;10.20;93.20;;;;;;5030928;28;20420;-75
2021/10/16 03:02:09;;;;;;;17.03;9.83;;;10.20;92.80;;;;;;5030600;28;20777;-76
2021/10/16 03:04:41;;;;;;;18.10;10.67;;;10.10;92.80;;;;;;5030396;28;20203;-76
2021/10/16 03:07:07;;;;;;;17.93;9.97;;;10.00;93.20;;;;;;5029632;28;20506;-77
2021/10/16 03:09:32;;;;;;;18.20;9.97;;;9.90;93.50;;;;;;5030859;28;21242;-77
2021/10/16 03:11:58;;;;;;;15.10;9.93;;;10.00;93.60;;;;;;5030236;28;20217;-76
2021/10/16 03:14:24;;;;;;;16.73;9.73;;;10.00;93.70;;;;;;5030160;28;20266;-76
2021/10/16 03:16:50;;;;;;;19.40;10.47;;;10.00;93.70;;;;;;5031111;28;20193;-78
2021/10/16 03:19:16;;;;;;;20.43;10.30;;;10.00;93.70;;;;;;5030588;28;20189;-76
2021/10/16 03:21:41;;;;;;;21.80;10.93;;;10.10;93.70;;;;;;5031428;28;20209;-77
2021/10/16 03:24:07;;;;;;;18.53;9.73;;;10.10;93.50;;;;;;5030107;28;20854;-76
2021/10/16 03:26:33;;;;;;;20.67;10.80;;;10.00;93.30;;;;;;5031502;28;20181;-76
2021/10/16 03:28:58;;;;;;;15.37;9.77;;;10.10;93.40;;;;;;5031017;28;20189;-77
2021/10/16 03:31:24;;;;;;;22.60;10.83;;;10.10;93.30;;;;;;5030691;28;20205;-76
2021/10/16 03:33:50;;;;;;;19.20;10.77;;;10.10;93.20;;;;;;5026465;28;20192;-75
2021/10/16 03:36:16;;;;;;;17.60;10.03;;;10.10;93.20;;;;;;5030335;28;20230;-76
2021/10/16 03:38:41;;;;;;;15.63;10.27;;;10.20;93.30;;;;;;5036974;28;20201;-77
2021/10/16 03:41:07;;;;;;;19.33;9.90;;;10.20;93.10;;;;;;5029978;28;20686;-77
2021/10/16 03:43:33;;;;;;;20.67;10.50;;;10.10;93.10;;;;;;5038881;28;20761;-76
2021/10/16 03:45:58;;;;;;;18.33;10.93;;;10.10;93.20;;;;;;5036052;28;20189;-76
2021/10/16 03:48:24;;;;;;;18.43;10.57;;;10.10;93.20;;;;;;5036045;28;20271;-76
2021/10/16 03:50:50;;;;;;;15.83;10.43;;;10.10;93.20;;;;;;5036674;28;20211;-75
2021/10/16 03:53:16;;;;;;;18.63;10.60;;;10.20;93.20;;;;;;5037227;28;20185;-75
2021/10/16 03:55:42;;;;;;;20.20;11.20;;;10.30;93.00;;;;;;5039132;28;20212;-76
2021/10/16 03:58:08;;;;;;;16.40;9.90;;;10.30;92.80;;;;;;5039252;28;20424;-76
2021/10/16 04:00:34;;;;;;;17.77;9.67;;;10.30;92.80;;;;;;5041041;28;20189;-75
2021/10/16 04:03:04;;;;;;;15.73;9.83;;;10.30;92.70;;;;;;5044325;28;20226;-75
2021/10/16 04:05:31;;;;;;;16.60;9.87;;;10.30;92.70;;;;;;5042762;28;20424;-76
2021/10/16 04:07:57;;;;;;;16.90;9.60;;;10.30;92.80;;;;;;5041644;28;20427;-76
2021/10/16 04:10:22;;;;;;;16.60;10.13;;;10.30;92.80;;;;;;5042306;28;20784;-76
2021/10/16 04:12:48;;;;;;;16.70;9.83;;;10.20;92.80;;;;;;5032469;28;20769;-78
2021/10/16 04:15:14;;;;;;;19.43;11.07;;;10.30;93.00;;;;;;5044607;28;20185;-76
2021/10/16 04:17:40;;;;;;;18.50;10.70;;;10.30;93.10;;;;;;5045102;28;20466;-76
2021/10/16 04:20:06;;;;;;;16.00;9.40;;;10.30;93.30;;;;;;5041062;28;20495;-76
2021/10/16 04:22:32;;;;;;;17.17;9.53;;;10.30;93.40;;;;;;5034494;28;20212;-75
2021/10/16 04:24:58;;;;;;;18.97;10.40;;;10.30;93.50;;;;;;5033651;28;20515;-75
2021/10/16 04:27:24;;;;;;;20.73;10.60;;;10.30;93.20;;;;;;5035010;28;20192;-78
2021/10/16 04:29:51;;;;;;;19.97;10.83;;;10.30;92.90;;;;;;5034661;28;20420;-77
2021/10/16 04:32:17;;;;;;;20.83;10.13;;;10.20;92.80;;;;;;5034570;28;20202;-78
2021/10/16 04:34:43;;;;;;;17.00;10.73;;;10.20;92.70;;;;;;5032700;28;20424;-77
2021/10/16 04:37:09;;;;;;;16.53;10.10;;;10.10;92.70;;;;;;5034350;28;20437;-76
2021/10/16 04:39:35;;;;;;;20.83;10.37;;;10.10;92.80;;;;;;5033380;28;20448;-77
2021/10/16 04:42:00;;;;;;;16.13;11.30;;;10.00;92.90;;;;;;5033979;28;20200;-77
2021/10/16 04:44:26;;;;;;;19.27;10.53;;;10.10;93.20;;;;;;5034211;28;20177;-76
2021/10/16 04:46:53;;;;;;;18.27;10.73;;;10.10;93.20;;;;;;5033090;28;20185;-77
2021/10/16 04:49:18;;;;;;;16.77;10.20;;;10.10;93.40;;;;;;5035258;28;20185;-77
2021/10/16 04:51:44;;;;;;;29.07;11.23;;;10.10;93.50;;;;;;5041053;28;20446;-77
2021/10/16 04:54:10;;;;;;;16.80;10.00;;;10.10;93.60;;;;;;5033118;28;20493;-77
2021/10/16 04:56:36;;;;;;;22.73;11.50;;;10.10;93.90;;;;;;5033329;28;20420;-77
2021/10/16 04:59:02;;;;;;;16.93;10.80;;;10.10;94.00;;;;;;5034901;28;20664;-77
2021/10/16 05:01:27;;;;;;;21.00;11.23;;;10.10;93.90;;;;;;5034518;28;20284;-77
2021/10/16 05:03:53;;;;;;;23.33;11.20;;;10.10;94.00;;;;;;5033940;28;20205;-77
2021/10/16 05:06:20;;;;;;;19.60;11.37;;;10.10;94.00;;;;;;5034948;28;20233;-76
2021/10/16 05:08:46;;;;;;;17.33;10.93;;;10.20;93.90;;;;;;5033457;28;20557;-77
2021/10/16 05:11:12;;;;;;;19.63;11.13;;;10.20;93.90;;;;;;5034302;28;20534;-75
2021/10/16 05:13:38;;;;;;;32.57;11.93;;;10.20;93.90;;;;;;5042076;28;20455;-75
2021/10/16 05:16:04;;;;;;;20.97;11.23;;;10.30;93.70;;;;;;5034754;28;20420;-77
2021/10/16 05:18:32;;;;;;;18.13;11.13;;;10.30;93.50;;;;;;5034428;28;20493;-78
2021/10/16 05:20:57;;;;;;;16.37;10.00;;;10.30;93.30;;;;;;5032951;28;20259;-77
2021/10/16 05:23:23;;;;;;;16.77;10.90;;;10.30;93.00;;;;;;5033179;28;20848;-77
2021/10/16 05:25:49;;;;;;;19.50;10.87;;;10.30;92.70;;;;;;5034455;28;20200;-76
2021/10/16 05:28:15;;;;;;;20.63;11.20;;;10.20;92.70;;;;;;5032847;28;20181;-76
2021/10/16 05:30:40;;;;;;;19.67;10.30;;;10.10;92.70;;;;;;5032693;28;20308;-78
2021/10/16 05:33:06;;;;;;;20.63;10.57;;;10.00;92.70;;;;;;5034100;28;20450;-77
2021/10/16 05:35:32;;;;;;;17.60;11.20;;;10.00;93.00;;;;;;5034059;28;20184;-77
2021/10/16 05:37:58;;;;;;;18.17;11.10;;;9.90;93.10;;;;;;5033591;28;20193;-77
2021/10/16 05:40:23;;;;;;;17.70;10.57;;;9.90;93.20;;;;;;5033583;28;20193;-76
2021/10/16 05:42:49;;;;;;;19.00;10.93;;;9.80;93.40;;;;;;5034019;28;20208;-76
2021/10/16 05:45:15;;;;;;;16.63;10.23;;;9.70;93.50;;;;;;5038970;28;20188;-77
2021/10/16 05:47:41;;;;;;;20.07;11.47;;;9.80;93.70;;;;;;5034553;28;20181;-77
2021/10/16 05:50:08;;;;;;;17.57;10.40;;;9.80;93.80;;;;;;5034604;28;20181;-77
2021/10/16 05:52:35;;;;;;;18.23;10.63;;;9.90;93.90;;;;;;5034455;28;20470;-77
2021/10/16 05:55:02;;;;;;;19.90;10.47;;;10.00;93.90;;;;;;5033536;28;20982;-78
2021/10/16 05:57:27;;;;;;;20.63;12.20;;;10.00;94.00;;;;;;5035074;28;20520;-77
2021/10/16 05:59:53;;;;;;;23.27;11.93;;;10.10;93.90;;;;;;5033568;28;20447;-77
2021/10/16 06:02:19;;;;;;;21.17;11.40;;;10.10;93.90;;;;;;5033074;28;20209;-78
2021/10/16 06:04:45;;;;;;;22.67;12.63;;;10.10;93.90;;;;;;5033627;28;20174;-77
2021/10/16 06:07:10;;;;;;;22.83;12.20;;;10.20;93.70;;;;;;5035524;28;20181;-75
2021/10/16 06:09:36;;;;;;;19.37;11.13;;;10.00;93.10;;;;;;5034001;28;20205;-77
2021/10/16 06:12:02;;;;;;;19.53;11.37;;;9.90;93.30;;;;;;5033153;28;20258;-78
2021/10/16 06:14:28;;;;;;;17.93;11.43;;;9.90;93.40;;;;;;5033288;28;20640;-77
2021/10/16 06:16:53;;;;;;;19.77;11.23;;;9.90;93.50;;;;;;5033230;28;20608;-76
2021/10/16 06:19:19;;;;;;;20.03;11.13;;;9.90;93.60;;;;;;5034831;28;20319;-77
2021/10/16 06:21:45;;;;;;;17.37;11.13;;;9.90;93.50;;;;;;5035728;28;20870;-76
2021/10/16 06:24:12;;;;;;;20.77;11.70;;;9.90;93.50;;;;;;5039096;28;20185;-77
2021/10/16 06:26:38;;;;;;;18.97;11.10;;;9.80;93.60;;;;;;5036828;28;20192;-77
2021/10/16 06:29:03;;;;;;;20.90;11.60;;;9.80;93.40;;;;;;5039150;28;20416;-77
2021/10/16 06:31:29;;;;;;;19.83;10.80;;;9.70;93.40;;;;;;5034439;28;20205;-77
2021/10/16 06:33:55;;;;;;;21.37;11.00;;;9.70;93.50;;;;;;5034961;28;20205;-77
2021/10/16 06:36:20;;;;;;;26.70;11.43;;;9.70;93.60;;;;;;5042759;28;20181;-77
2021/10/16 06:38:46;;;;;;;19.73;11.00;;;9.70;93.80;;;;;;5041197;28;20193;-77
2021/10/16 06:41:12;;;;;;;17.30;10.17;;;9.70;93.80;;;;;;5040902;28;20208;-77
2021/10/16 06:43:37;;;;;;;25.50;12.60;;;9.70;93.80;;;;;;5040625;28;20296;-77
2021/10/16 06:46:04;;;;;;;24.17;12.50;;;9.70;93.70;;;;;;5043712;28;20205;-78
2021/10/16 06:48:30;;;;;;;21.77;12.17;;;9.70;93.60;;;;;;5043256;28;20431;-78
2021/10/16 06:50:56;;;;;;;20.90;12.57;;;9.60;93.80;;;;;;5044060;28;20251;-78
2021/10/16 06:53:21;;;;;;;22.00;12.20;;;9.70;93.90;;;;;;5043527;28;20185;-78
2021/10/16 06:55:47;;;;;;;21.27;11.57;;;9.70;93.80;;;;;;5036606;28;21056;-77
2021/10/16 06:58:13;;;;;;;23.73;11.60;;;9.80;93.90;;;;;;5036003;28;20196;-76
2021/10/16 07:00:39;;;;;;;22.63;11.80;;;9.80;93.90;;;;;;5034100;28;20243;-77
2021/10/16 07:03:07;;;;;;;19.83;13.13;;;9.90;94.00;;;;;;5033898;28;20217;-77
2021/10/16 07:05:33;;;;;;;22.53;12.60;;;10.00;93.60;;;;;;5033849;28;20268;-77
2021/10/16 07:07:58;;;;;;;30.63;15.30;;;10.00;93.10;;;;;;5037444;28;20424;-76
2021/10/16 07:10:24;;;;;;;19.80;11.53;;;9.90;93.10;;;;;;5038844;28;20451;-76
2021/10/16 07:12:50;;;;;;;20.73;11.60;;;10.00;93.10;;;;;;5036840;28;20192;-78
2021/10/16 07:15:16;;;;;;;20.30;12.00;;;10.00;92.90;;;;;;5036597;28;20196;-78
2021/10/16 07:17:42;;;;;;;17.60;11.37;;;10.10;92.80;;;;;;5032485;28;20180;-76
2021/10/16 07:20:08;;;;;;;23.23;11.23;;;10.10;92.60;;;;;;5031861;28;20613;-76
2021/10/16 07:22:34;;;;;;;23.70;11.90;;;10.10;92.50;;;;;;5029037;28;20306;-77
2021/10/16 07:24:59;;;;;;;19.47;11.30;;;10.20;92.50;;;;;;5029540;28;20474;-78
2021/10/16 07:27:25;;;;;;;22.77;12.17;;;10.20;92.40;;;;;;5030613;28;20177;-78
2021/10/16 07:29:51;;;;;;;22.90;13.03;;;10.20;92.20;;;;;;5030101;28;20231;-77
2021/10/16 07:32:16;;;;;;;36.63;19.40;;;10.10;92.20;;;;;;5030873;28;20689;-77
2021/10/16 07:34:42;;;;;;;26.27;15.27;;;10.10;92.30;;;;;;5025829;28;20520;-77
2021/10/16 07:37:08;;;;;;;22.93;12.63;;;10.20;92.40;;;;;;5040126;28;20243;-78
2021/10/16 07:39:34;;;;;;;20.20;11.80;;;10.20;92.20;;;;;;5038787;28;20266;-76
2021/10/16 07:41:59;;;;;;;21.07;12.10;;;10.20;92.20;;;;;;5034366;28;20476;-77
2021/10/16 07:44:25;;;;;;;23.43;13.47;;;10.20;92.20;;;;;;5034403;28;20181;-78
2021/10/16 07:46:51;;;;;;;19.47;11.70;;;10.20;92.30;;;;;;5042452;28;20570;-76
2021/10/16 07:49:17;;;;;;;21.73;12.00;;;10.30;92.40;;;;;;5042409;28;20190;-77
2021/10/16 07:51:43;;;;;;;20.40;12.17;;;10.40;92.20;;;;;;5034117;28;20659;-77
2021/10/16 07:54:09;;;;;;;34.60;18.77;;;10.40;92.00;;;;;;5026931;28;20185;-77
2021/10/16 07:56:35;;;;;;;23.70;12.33;;;10.50;91.80;;;;;;5030127;28;20877;-78
2021/10/16 07:59:00;;;;;;;25.93;15.67;;;10.50;91.70;;;;;;5029961;28;20185;-78
2021/10/16 08:01:26;;;;;;;28.57;14.80;;;10.60;91.70;;;;;;5029259;28;20209;-77
2021/10/16 08:03:52;;;;;;;26.53;12.50;;;10.70;91.50;;;;;;5028753;28;20228;-78
2021/10/16 08:06:19;;;;;;;21.30;13.37;;;10.70;91.10;;;;;;5029281;28;20188;-77
2021/10/16 08:08:45;;;;;;;21.60;12.37;;;10.80;91.00;;;;;;5027582;28;20440;-78
2021/10/16 08:11:10;;;;;;;24.67;12.80;;;10.80;91.00;;;;;;5029113;28;20456;-76
2021/10/16 08:13:36;;;;;;;20.37;12.20;;;10.90;90.70;;;;;;5029470;28;20258;-78
2021/10/16 08:16:02;;;;;;;20.30;11.70;;;10.90;90.50;;;;;;5029503;28;20193;-77
2021/10/16 08:18:28;;;;;;;20.20;13.20;;;10.90;90.30;;;;;;5029380;28;20193;-77
2021/10/16 08:20:53;;;;;;;23.87;12.30;;;11.00;90.30;;;;;;5029521;28;20858;-78
2021/10/16 08:23:20;;;;;;;24.23;13.27;;;11.00;90.10;;;;;;5029316;28;20217;-78
2021/10/16 08:25:45;;;;;;;21.50;13.93;;;11.00;90.10;;;;;;5028898;28;20432;-78
2021/10/16 08:28:14;;;;;;;29.23;14.23;;;11.10;90.00;;;;;;5031547;28;20431;-77
2021/10/16 08:30:46;;;;;;;27.97;13.80;;;11.10;90.00;;;;;;5033897;28;20448;-78
2021/10/16 08:33:12;;;;;;;28.37;14.97;;;11.10;89.90;;;;;;5032005;28;20435;-76
2021/10/16 08:35:37;;;;;;;28.80;15.93;;;11.10;90.10;;;;;;5027656;28;20501;-78
2021/10/16 08:38:03;;;;;;;29.50;15.60;;;11.10;90.10;;;;;;5033398;28;20212;-75
2021/10/16 08:40:29;;;;;;;37.90;17.30;;;11.10;90.10;;;;;;5030970;28;20189;-76
2021/10/16 08:42:55;;;;;;;34.07;16.83;;;11.20;90.20;;;;;;5033323;28;20217;-76
2021/10/16 08:45:20;;;;;;;39.13;18.33;;;11.20;90.20;;;;;;5032398;28;20189;-77
2021/10/16 08:47:47;;;;;;;42.53;20.30;;;11.10;90.20;;;;;;5030936;28;20208;-78
2021/10/16 08:50:13;;;;;;;38.93;18.20;;;11.10;90.50;;;;;;5032865;28;20189;-77
2021/10/16 08:52:40;;;;;;;43.67;20.63;;;11.20;90.70;;;;;;5032378;28;20961;-77
2021/10/16 08:55:08;;;;;;;45.70;21.03;;;11.20;90.70;;;;;;5031452;28;20485;-78
2021/10/16 08:57:36;;;;;;;44.93;19.53;;;11.20;90.90;;;;;;5039520;28;20604;-77
2021/10/16 09:00:41;;;;;;;41.50;20.13;;;11.20;90.90;;;;;;5037331;28;20467;-78
2021/10/16 09:03:25;;;;;;;43.77;17.60;;;11.20;90.50;;;;;;5036537;28;21077;-76
2021/10/16 09:06:02;;;;;;;35.33;16.60;;;11.20;90.70;;;;;;5030250;28;20423;-74
2021/10/16 09:08:34;;;;;;;39.60;19.57;;;11.10;90.40;;;;;;5032776;28;20465;-75
2021/10/16 09:11:20;;;;;;;49.13;20.30;;;11.10;90.70;;;;;;5034718;28;21124;-74
2021/10/16 09:13:50;;;;;;;61.97;26.10;;;11.10;91.00;;;;;;5032269;28;20829;-74
2021/10/16 09:16:26;;;;;;;57.27;26.33;;;11.10;91.40;;;;;;5032002;28;20518;-74
2021/10/16 09:18:56;;;;;;;52.27;23.97;;;11.00;91.60;;;;;;5031502;28;20447;-75
2021/10/16 09:21:24;;;;;;;54.97;22.27;;;11.00;91.70;;;;;;5031652;28;20617;-74
2021/10/16 09:24:07;;;;;;;48.57;22.47;;;10.90;92.00;;;;;;5032035;28;20515;-73
2021/10/16 09:26:35;;;;;;;49.40;21.40;;;11.00;91.90;;;;;;5032734;28;20419;-74
2021/10/16 09:29:03;;;;;;;39.20;19.20;;;11.10;91.90;;;;;;5065709;28;20478;-74
2021/10/16 09:31:40;;;;;;;45.17;19.40;;;11.20;91.70;;;;;;5032835;28;20506;-74
2021/10/16 09:34:06;;;;;;;39.77;18.83;;;11.30;91.20;;;;;;5027104;28;20419;-74
2021/10/16 09:36:34;;;;;;;43.67;19.03;;;11.30;91.20;;;;;;5031568;28;20477;-74
2021/10/16 09:39:00;;;;;;;45.70;18.27;;;11.40;90.90;;;;;;5030355;28;20455;-73
2021/10/16 09:41:31;;;;;;;38.33;18.53;;;11.40;90.80;;;;;;5024114;28;20864;-73
2021/10/16 09:43:57;;;;;;;39.50;19.77;;;11.50;90.60;;;;;;5030735;28;20426;-74
2021/10/16 09:46:24;;;;;;;40.63;18.00;;;11.60;90.60;;;;;;5031034;28;20427;-73
2021/10/16 09:48:51;;;;;;;41.63;19.60;;;11.60;90.40;;;;;;5030883;28;20460;-73
2021/10/16 09:51:21;;;;;;;41.07;19.30;;;11.70;90.30;;;;;;5030693;28;20443;-73
2021/10/16 09:53:50;;;;;;;43.10;20.70;;;11.80;90.00;;;;;;5028886;28;20503;-72
2021/10/16 09:56:16;;;;;;;38.67;17.80;;;11.90;89.60;;;;;;5029255;28;20439;-73
2021/10/16 09:58:42;;;;;;;46.00;19.30;;;12.00;89.50;;;;;;5029084;28;20458;-72
2021/10/16 10:01:10;;;;;;;39.47;18.60;;;12.00;89.00;;;;;;5030286;28;20493;-73
2021/10/16 10:03:43;;;;;;;38.77;16.43;;;12.00;88.90;;;;;;5030373;28;20550;-74
2021/10/16 10:06:14;;;;;;;33.17;17.83;;;12.00;88.70;;;;;;5030760;28;20477;-74
2021/10/16 10:08:40;;;;;;;40.60;18.73;;;11.90;88.70;;;;;;5030277;28;20424;-74
2021/10/16 10:11:07;;;;;;;38.30;17.93;;;12.00;89.00;;;;;;5032552;28;20444;-74
2021/10/16 10:13:35;;;;;;;46.07;20.37;;;12.00;88.90;;;;;;5032266;28;20433;-74
2021/10/16 10:16:01;;;;;;;38.37;19.40;;;12.10;88.60;;;;;;5032844;28;20428;-74
2021/10/16 10:21:11;;;;;;;39.63;19.53;;;11.80;89.20;;;;;;5029086;28;20439;-75
2021/10/16 10:23:52;;;;;;;34.47;17.20;;;12.00;89.30;;;;;;5029546;28;20839;-75
2021/10/16 10:26:41;;;;;;;36.23;19.30;;;12.00;89.00;;;;;;5033616;28;20420;-74
2021/10/16 10:29:14;;;;;;;40.17;19.23;;;12.20;89.00;;;;;;5034195;28;20887;-74
2021/10/16 10:31:45;;;;;;;39.93;20.03;;;12.30;88.40;;;;;;5033915;28;20424;-75
2021/10/16 10:34:12;;;;;;;32.67;18.30;;;12.50;87.60;;;;;;5032075;28;20428;-76
2021/10/16 10:36:52;;;;;;;34.13;18.70;;;12.60;87.40;;;;;;5032927;28;20420;-74
2021/10/16 10:39:35;;;;;;;33.73;18.07;;;12.90;86.50;;;;;;5035181;28;20428;-76
2021/10/16 10:42:13;;;;;;;35.63;18.13;;;13.10;86.00;;;;;;5026075;28;20467;-76
2021/10/16 10:44:44;;;;;;;35.07;19.17;;;13.40;84.60;;;;;;5030943;28;20707;-75
2021/10/16 10:47:31;;;;;;;33.27;18.80;;;13.50;82.70;;;;;;5032049;28;20868;-75
2021/10/16 10:49:58;;;;;;;32.20;17.47;;;13.30;83.30;;;;;;5037119;28;20470;-75
2021/10/16 10:52:27;;;;;;;34.90;18.87;;;13.30;83.80;;;;;;5036202;28;20447;-75
2021/10/16 10:54:59;;;;;;;31.20;17.10;;;13.40;82.50;;;;;;5026967;28;20446;-74
2021/10/16 10:57:43;;;;;;;31.60;16.63;;;13.50;82.80;;;;;;5030554;28;20427;-75
2021/10/16 11:00:14;;;;;;;32.13;18.17;;;13.70;82.50;;;;;;5028304;28;20523;-74
2021/10/16 11:02:40;;;;;;;38.23;20.53;;;13.90;81.10;;;;;;5032185;28;20505;-74
2021/10/16 11:05:35;;;;;;;66.53;34.47;;;14.10;80.60;;;;;;5032236;28;20570;-75
2021/10/16 11:08:14;;;;;;;40.47;20.80;;;14.50;79.90;;;;;;5033613;28;20439;-73
2021/10/16 11:10:41;;;;;;;34.37;19.00;;;14.80;78.30;;;;;;5033926;28;20443;-74
2021/10/16 11:13:15;;;;;;;33.67;18.90;;;14.70;76.50;;;;;;5034190;28;20479;-74
2021/10/16 11:15:44;;;;;;;33.27;17.43;;;14.60;77.80;;;;;;5033283;28;20424;-73
2021/10/16 11:18:11;;;;;;;32.90;17.47;;;14.50;77.70;;;;;;5037210;28;20420;-72
2021/10/16 11:20:37;;;;;;;31.20;17.47;;;14.40;78.00;;;;;;5034215;28;20428;-73
2021/10/16 11:23:04;;;;;;;30.63;17.70;;;14.00;79.50;;;;;;5036530;28;20467;-73
2021/10/16 11:25:32;;;;;;;32.60;16.83;;;14.00;80.20;;;;;;5038024;28;20424;-74
2021/10/16 11:28:11;;;;;;;33.20;18.23;;;14.10;79.60;;;;;;5035323;28;20506;-73
2021/10/16 11:30:45;;;;;;;31.77;18.33;;;13.90;79.90;;;;;;5029351;28;20433;-74
2021/10/16 11:33:17;;;;;;;37.83;17.93;;;13.90;80.60;;;;;;5028814;28;20777;-74
2021/10/16 11:35:46;;;;;;;31.97;17.13;;;14.10;80.20;;;;;;5021932;28;21149;-74
2021/10/16 11:38:20;;;;;;;33.43;17.63;;;14.20;79.30;;;;;;5028665;28;20927;-75
2021/10/16 11:40:46;;;;;;;27.43;16.57;;;14.20;78.90;;;;;;5025702;28;20460;-75
2021/10/16 11:43:17;;;;;;;29.43;18.07;;;14.20;78.90;;;;;;5026705;28;20501;-73
2021/10/16 11:45:45;;;;;;;33.97;18.87;;;14.40;78.60;;;;;;5029241;28;20988;-74
2021/10/16 11:48:12;;;;;;;38.10;20.37;;;14.60;78.60;;;;;;5030693;28;20775;-74
2021/10/16 11:50:47;;;;;;;30.13;17.50;;;15.10;76.20;;;;;;5031081;28;20420;-76
2021/10/16 11:53:17;;;;;;;30.00;17.63;;;15.40;74.20;;;;;;5030619;28;20809;-75
2021/10/16 11:55:44;;;;;;;29.60;16.87;;;15.60;73.00;;;;;;5030107;28;20429;-73
2021/10/16 11:58:13;;;;;;;26.00;16.30;;;15.50;73.20;;;;;;5032994;28;20431;-75
2021/10/16 12:00:41;;;;;;;29.80;17.50;;;15.40;73.00;;;;;;5031373;28;20454;-75
2021/10/16 12:03:18;;;;;;;26.87;15.27;;;15.50;73.20;;;;;;5033480;28;20475;-73
2021/10/16 12:05:50;;;;;;;29.20;17.00;;;15.40;73.50;;;;;;5035827;28;20618;-75
2021/10/16 12:08:20;;;;;;;25.30;15.20;;;15.40;74.00;;;;;;5033882;28;20445;-75
2021/10/16 12:10:52;;;;;;;29.37;15.83;;;15.60;74.00;;;;;;5036366;28;20782;-75
2021/10/16 12:13:31;;;;;;;27.07;15.00;;;16.10;72.70;;;;;;5034573;28;20446;-75
2021/10/16 12:15:58;;;;;;;26.67;16.77;;;16.70;70.50;;;;;;5034235;28;20433;-75
2021/10/16 12:18:26;;;;;;;24.90;14.97;;;17.10;68.90;;;;;;5033652;28;20453;-74
2021/10/16 12:21:00;;;;;;;26.20;15.73;;;17.10;68.60;;;;;;5032707;28;20440;-77
2021/10/16 12:23:47;;;;;;;24.60;15.07;;;17.00;68.60;;;;;;5032471;28;21074;-73
2021/10/16 12:26:19;;;;;;;26.23;16.07;;;17.10;68.90;;;;;;5032605;28;20414;-74
2021/10/16 12:28:45;;;;;;;25.90;15.33;;;17.30;68.80;;;;;;5033144;28;21003;-75
2021/10/16 12:31:11;;;;;;;23.77;15.23;;;17.50;67.70;;;;;;5034260;28;20530;-74
2021/10/16 12:33:56;;;;;;;22.03;13.90;;;17.70;66.90;;;;;;5034219;28;20191;-75
2021/10/16 12:36:37;;;;;;;22.67;14.30;;;17.70;66.10;;;;;;5034698;28;20194;-75
2021/10/16 12:39:06;;;;;;;24.57;14.73;;;18.00;66.10;;;;;;5030724;28;20444;-73